AirNav   Pilot Hours Calculator
 
 1174 users online  

9LA8 Cornerstone Chemical Company Helistop Heliport
South Kenner, Louisiana, USA

GOING TO SOUTH KENNER?


FAA INFORMATION EFFECTIVE 08 SEPTEMBER 2022

Location

FAA Identifier: 9LA8
Lat/Long: 29-57-37.7360N 090-17-01.2800W
29-57.628933N 090-17.021333W
29.9604822,-90.2836889
(estimated)
Elevation: 9 ft. / 3 m (estimated)
Variation: 03E (1985)
From city: 2 miles NE of SOUTH KENNER, LA
Time zone: UTC -5 (UTC -6 during Standard Time)
Zip code: 70031

Heliport Operations

Heliport use: Private use. Permission required prior to landing
Activation date: 09/1977
Control tower: no
ARTCC: HOUSTON CENTER
FSS: DE RIDDER FLIGHT SERVICE STATION
Attendance: UNATNDD
Wind indicator: no
Segmented circle: yes

Heliport Communications

WX ASOS at MSY (2.3 nm NE): PHONE (504)471-4486
WX ASOS at NEW (14 nm E): PHONE 504-245-4366
WX AWOS-3PT at APS (17 nm NW): 125.45 (985-536-1009)

Nearby radio navigation aids

VOR radial/distance  VOR name  Freq  Var
HRVr292/16.0HARVEY VORTAC114.1002E
RQRr114/17.6RESERVE VOR/DME110.8002E
TBDr056/33.5TIBBY VOR/DME112.0002E

Heliport Services

Runway Information

Helipad H1

Dimensions: 200 x 200 ft. / 61 x 61 m
Surface: asphalt/concrete
Latitude: 29-57.629000N
Longitude: 090-17.021333W
Elevation: 9.0 ft.
Traffic pattern: leftleft

Heliport Ownership and Management from official FAA records

Ownership: Privately-owned
Owner: CORNERSTONE CHEMICAL COMPANY
10800 RIVER ROAD
WAGGAMAN, LA 70094
Phone (504) 431-6558
Manager: NICHOLAS FANGUE
10800 RIVER ROAD
WAGGAMAN, LA 70094
Phone (504) 431-6558
OTR CTC STEPHEN BELL 504-431-6781

Additional Remarks

A52-H1 TREES, CHEM PLANT AND STACK.
FOR CD CTC NEW ORLEANS APCH AT 504-471-4350.

Instrument Procedures

There are no published instrument procedures at 9LA8.

Some nearby airports with instrument procedures:

KMSY - Louis Armstrong New Orleans International Airport (2 nm NE)
KNEW - Lakefront Airport (14 nm E)
KNBG - New Orleans Naval Air Station Joint Reserve Base - Alvin Callender Field (16 nm SE)
KAPS - Port of South Louisiana Executive Regional Airport (17 nm NW)
KHUM - Houma-Terrebonne Airport (31 nm SW)
 
Loc | Ops | Rwys | IFR | FBO | Links
Com | Nav | Svcs | Stats | Notes
Area around 9LA8 (Cornerstone Chemical Company Helistop Heliport)
 
Road maps at: MapQuest Bing Google
 
Aerial photo
No photo
 
Sectional chart

 
Airport distance calculator
Flying to Cornerstone Chemical Company Helistop Heliport? Find the distance to fly.

From to 9LA8

Sunrise and sunset
Times for 28-Sep-2022
 Local
(UTC-5)
 Zulu
(UTC)
Morning civil twilight06:3011:30
Sunrise06:5411:54
Sunset18:5023:50
Evening civil twilight19:1400:14

Current date and time
Zulu (UTC)  29-Sep-2022 03:12:50
Local (UTC-5)  28-Sep-2022 22:12:50
 
METAR
KMSY 
3nm NE 
290253Z 03012G22KT 10SM CLR 24/08 A3014 RMK AO2 SLP208 T02390083 51019
K7N0 
10nm E 
290256Z AUTO 03011G17KT 10SM CLR 23/08 A3015 RMK AO2 SLP208 6//// T02330078 51020 PNO $
KNEW 
14nm E 
290253Z AUTO 03021G27KT 10SM CLR 23/11 A3015 RMK AO2 PK WND 02032/0211 SLP202 T02330111 51020
KNBG 
16nm SE 
290255Z 02012G22KT 10SM CLR 22/07 A3013 RMK AO2 SLP201 T02220072 51018 $
KAPS 
17nm NW 
290255Z AUTO 01006KT CLR 21/09 A3015 RMK AO2 PWINO
TAF
KMSY 
3nm NE 
281721Z 2818/2924 04015G24KT P6SM SKC
KNEW 
14nm E 
281721Z 2818/2918 03018G25KT P6SM SKC
KNBG 
16nm SE 
2823/2923 02018G25KT 9999 SKC QNH3004INS BECMG 2900/2902 02012G18KT 9999 FEW250 QNH3013INS BECMG 2911/2913 01015G25KT 9999 SKC QNH3001INS AUTOMATED SENSOR METWATCH 2904 TIL 2910 16/2911Z T26/2919Z FN00247
NOTAMs
Click for the latest NOTAMs
NOTAMs are issued by the DoD/FAA and will open in a separate window not controlled by AirNav.

 

 
 

Would you like to see your business listed on this page?

 If your business provides an interesting product or service to pilots, flight crews, aircraft, or users of the Cornerstone Chemical Company Helistop Heliport, you should consider listing it here.  To start the listing process, click on the button below
 
Add a business
 

Other Pages about Cornerstone Chemical Company Helistop Heliport

Update a link
 
Copyright © AirNav, LLC. All rights reserved. Privacy Policy  Contact